»·PEaware :: QXE448 KBOI-KSLC

QXE448 :: KBOI-KSLC

FLIGHT INFORMATION

Flight Status: Arrived
Operator:
Horizon Air
More flights by this operator :: More flights under this callsign
Pilot: Gord H. (12075)
Aircraft: DEHAVILLAND DASH 8 400
(DH8D)
More flights by this aircraft type
Origin: KBOI Boise Air Terminal/Gowen
United States
Destination: KSLC Salt Lake City Intl
United States
More flights between these airports :: More routes between these airports
Route: BOI ROARR BYI SKEES5
File this flight plan on PilotEdge
Remarks: PBN / D1 DOF / 180819 REG / N847SB OPR / QXE PER / C RMK / TCAS SIMBRIEF
Altitude:
(Current/Filed)
19,000ft
Speed:
(Current/Filed)
324kts
Departed: 19-Aug-18 01:04 PM
Arrived: 19-Aug-18 02:04 PM
Distance/Time
Traveled:
252nm/0:59
Distance/Time
To Go:
Arrived

Flight Plot

Page will automatically refresh every two minutes.

Flight plan parsing failed; only flown route is shown


Map Options




Map Legend


Flown Route
Filed Route
Departure Airport
Arrival Airport
Navaid (VOR, NDB)
Fix

Horizontal Profiles

Position Reports

Time Latitude Longitude Heading Altitude Ground
Speed
19-Aug-18 12:39 43.567432 -116.221111 30 2841ft 0kts
19-Aug-18 12:40 43.567432 -116.221111 30 2842ft 0kts
19-Aug-18 12:41 43.567432 -116.221111 30 2842ft 0kts
19-Aug-18 12:42 43.567432 -116.221111 30 2841ft 0kts
19-Aug-18 12:43 43.567432 -116.221111 30 2841ft 0kts
19-Aug-18 12:44 43.567432 -116.221111 30 2841ft 0kts
19-Aug-18 12:45 43.567432 -116.221111 30 2841ft 0kts
19-Aug-18 12:46 43.567432 -116.221111 30 2841ft 0kts
19-Aug-18 12:47 43.567432 -116.221111 30 2841ft 0kts
19-Aug-18 12:48 43.567432 -116.221111 30 2841ft 0kts
19-Aug-18 12:49 43.567432 -116.221111 30 2841ft 0kts
19-Aug-18 12:50 43.567432 -116.221111 30 2841ft 0kts
19-Aug-18 12:51 43.567432 -116.221111 30 2841ft 0kts
19-Aug-18 12:52 43.567432 -116.221111 30 2841ft 0kts
19-Aug-18 12:53 43.567432 -116.221111 30 2841ft 0kts
19-Aug-18 12:54 43.567432 -116.221111 30 2841ft 0kts
19-Aug-18 12:55 43.567054 -116.221298 355 2841ft 2kts
19-Aug-18 12:56 43.566833 -116.221036 294 2841ft 0kts
19-Aug-18 12:57 43.566833 -116.221036 294 2841ft 0kts
19-Aug-18 12:58 43.566833 -116.221036 294 2841ft 0kts
19-Aug-18 12:59 43.566833 -116.221036 294 2841ft 0kts
19-Aug-18 13:00 43.566595 -116.222609 292 2841ft 11kts
19-Aug-18 13:01 43.568483 -116.228130 294 2841ft 20kts
19-Aug-18 13:02 43.570266 -116.233410 295 2841ft 1kts
19-Aug-18 13:03 43.570782 -116.236129 209 2841ft 0kts
19-Aug-18 13:04 43.569861 -116.235880 114 2841ft 16kts
19-Aug-18 13:05 43.559288 -116.200169 110 3694ft 135kts
19-Aug-18 13:06 43.541837 -116.142263 116 5198ft 185kts
19-Aug-18 13:07 43.518612 -116.072757 116 6924ft 210kts
19-Aug-18 13:08 43.493076 -115.997760 116 8754ft 216kts
19-Aug-18 13:09 43.465555 -115.914550 115 9692ft 260kts
19-Aug-18 13:10 43.435880 -115.821033 114 11043ft 272kts
19-Aug-18 13:11 43.405198 -115.724106 113 12379ft 281kts
19-Aug-18 13:12 43.373742 -115.624514 114 13613ft 287kts
19-Aug-18 13:13 43.341341 -115.522948 114 14677ft 294kts
19-Aug-18 13:14 43.308267 -115.419974 114 15646ft 295kts
19-Aug-18 13:15 43.270194 -115.319934 124 16557ft 297kts
19-Aug-18 13:16 43.225096 -115.225011 124 17557ft 298kts
19-Aug-18 13:17 43.180307 -115.128820 124 18558ft 298kts
19-Aug-18 13:18 43.135428 -115.032619 124 19140ft 310kts
19-Aug-18 13:19 43.087733 -114.930655 124 19187ft 330kts
19-Aug-18 13:20 43.037222 -114.822936 124 19217ft 344kts
19-Aug-18 13:21 42.984922 -114.711828 124 19214ft 353kts
19-Aug-18 13:22 42.931786 -114.599353 124 19210ft 355kts
19-Aug-18 13:23 42.878414 -114.486737 124 19225ft 356kts
19-Aug-18 13:24 42.824594 -114.373810 124 19213ft 357kts
19-Aug-18 13:25 42.770971 -114.261558 124 19217ft 357kts
19-Aug-18 13:26 42.716846 -114.148796 124 19217ft 359kts
19-Aug-18 13:27 42.661924 -114.034745 124 19174ft 361kts
19-Aug-18 13:28 42.607326 -113.921970 124 19171ft 360kts
19-Aug-18 13:29 42.545273 -113.816458 138 19159ft 361kts
19-Aug-18 13:30 42.472780 -113.722211 136 19156ft 362kts
19-Aug-18 13:31 42.401277 -113.626149 136 19157ft 362kts
19-Aug-18 13:32 42.329868 -113.531045 137 19161ft 362kts
19-Aug-18 13:33 42.258437 -113.436358 137 19166ft 363kts
19-Aug-18 13:34 42.186361 -113.341220 137 19170ft 363kts
19-Aug-18 13:35 42.114438 -113.246350 137 19161ft 362kts
19-Aug-18 13:36 42.042658 -113.152005 137 19181ft 361kts
19-Aug-18 13:37 41.970818 -113.058020 137 19184ft 362kts
19-Aug-18 13:38 41.898437 -112.963492 137 19187ft 363kts
19-Aug-18 13:39 41.825939 -112.869133 137 19191ft 364kts
19-Aug-18 13:40 41.753377 -112.775126 137 19179ft 364kts
19-Aug-18 13:41 41.681032 -112.681551 137 19193ft 362kts
19-Aug-18 13:42 41.608200 -112.587806 137 18673ft 377kts
19-Aug-18 13:43 41.530220 -112.487928 137 17081ft 387kts
19-Aug-18 13:44 41.444484 -112.417132 157 15083ft 349kts
19-Aug-18 13:45 41.362200 -112.358850 152 14361ft 328kts
19-Aug-18 13:46 41.283408 -112.302674 152 13643ft 315kts
19-Aug-18 13:47 41.208241 -112.249317 150 12851ft 304kts
19-Aug-18 13:48 41.136172 -112.193521 149 12149ft 296kts
19-Aug-18 13:49 41.070096 -112.146448 163 11585ft 284kts
19-Aug-18 13:50 40.993393 -112.129227 171 11127ft 281kts
19-Aug-18 13:51 40.916098 -112.112868 170 11023ft 280kts
19-Aug-18 13:52 40.839454 -112.101376 176 10989ft 275kts
19-Aug-18 13:53 40.764817 -112.093602 175 10984ft 268kts
19-Aug-18 13:54 40.692630 -112.085202 175 10989ft 262kts
19-Aug-18 13:55 40.618807 -112.076533 175 11006ft 277kts
19-Aug-18 13:56 40.540393 -112.067351 175 10784ft 287kts
19-Aug-18 13:57 40.463787 -112.054377 152 9894ft 273kts
19-Aug-18 13:58 40.454235 -111.977930 41 8883ft 236kts
19-Aug-18 13:59 40.515000 -111.964846 354 8592ft 221kts
19-Aug-18 14:00 40.574774 -111.972239 354 8017ft 211kts
19-Aug-18 14:01 40.632269 -111.978943 355 7237ft 204kts
19-Aug-18 14:02 40.682920 -111.984546 355 6038ft 160kts
19-Aug-18 14:03 40.724872 -111.989852 353 5126ft 149kts
19-Aug-18 14:04 40.766084 -111.994643 356 4443ft 148kts
19-Aug-18 14:05 40.794320 -111.997469 29 4234ft 16kts
19-Aug-18 14:06 40.795004 -111.996599 51 4234ft 1kts
19-Aug-18 14:07 40.791945 -111.995300 174 4234ft 17kts
19-Aug-18 14:08 40.791066 -111.993310 84 4234ft 13kts
19-Aug-18 14:09 40.791447 -111.987701 85 4234ft 14kts
19-Aug-18 14:10 40.791800 -111.982314 84 4234ft 11kts
19-Aug-18 14:11 40.790083 -111.979719 214 4234ft 15kts
19-Aug-18 14:12 40.788403 -111.979255 97 4234ft 0kts
19-Aug-18 14:13 40.788403 -111.979255 97 4234ft 0kts
19-Aug-18 14:14 40.788403 -111.979255 97 4234ft 0kts

Navigation Log

Ident Type
Flight plan parsing failed, navigation log unavailable